createdAt,value
2019-05-13T00:00:58.744Z,96502.80
2019-05-13T00:03:33.393Z,96510.36
2019-05-13T00:06:06.236Z,96501.92
2019-05-13T00:08:38.885Z,96500.98
2019-05-13T00:11:13.673Z,96505.55
2019-05-13T00:13:46.124Z,96500.99
2019-05-13T00:16:18.924Z,96502.89
2019-05-13T00:18:53.479Z,96494.70
2019-05-13T00:21:25.878Z,96507.09
2019-05-13T00:23:58.618Z,96486.72
2019-05-13T00:26:33.605Z,96490.29
2019-05-13T00:29:05.547Z,96483.59
2019-05-13T00:31:38.143Z,96485.89
2019-05-13T00:34:10.977Z,96482.91
2019-05-13T00:36:44.544Z,96484.31
2019-05-13T00:39:17.303Z,96489.14
2019-05-13T00:41:50.068Z,96476.87
2019-05-13T00:44:24.441Z,96479.13
2019-05-13T00:46:57.104Z,96483.74
2019-05-13T00:49:29.728Z,96464.92
2019-05-13T00:52:03.864Z,96471.40
2019-05-13T00:54:36.658Z,96464.31
2019-05-13T00:57:13.354Z,96452.94
2019-05-13T00:59:45.398Z,96460.96
2019-05-13T01:02:18.044Z,96464.05
2019-05-13T01:04:50.726Z,96461.21
2019-05-13T01:07:28.553Z,96447.94
2019-05-13T01:09:57.667Z,96453.40
2019-05-13T01:12:30.299Z,96437.94
2019-05-13T01:15:04.112Z,96444.81
2019-05-13T01:17:38.389Z,96444.08
2019-05-13T01:20:14.188Z,96446.63
2019-05-13T01:22:47.373Z,96444.11
2019-05-13T01:25:20.027Z,96445.84
2019-05-13T01:27:53.712Z,96443.41
2019-05-13T01:30:26.482Z,96436.84
2019-05-13T01:32:59.273Z,96441.67
2019-05-13T01:35:34.268Z,96433.72
2019-05-13T01:38:06.418Z,96441.53
2019-05-13T01:40:39.826Z,96429.62
2019-05-13T01:43:14.352Z,96437.21
2019-05-13T01:45:46.875Z,96434.50
2019-05-13T01:48:19.624Z,96441.61
2019-05-13T01:50:53.378Z,96433.83
2019-05-13T01:53:26.019Z,96441.59
2019-05-13T01:55:58.791Z,96437.52
2019-05-13T01:58:33.810Z,96431.98
2019-05-13T02:01:05.856Z,96436.82
2019-05-13T02:03:38.481Z,96453.05
2019-05-13T02:06:11.269Z,96447.70
2019-05-13T02:08:44.397Z,96446.12
2019-05-13T02:11:18.754Z,96443.58
2019-05-13T02:13:53.993Z,96447.98
2019-05-13T02:16:25.958Z,96437.95
2019-05-13T02:18:58.989Z,96444.34
2019-05-13T02:21:33.663Z,96440.55
2019-05-13T02:24:05.960Z,96431.22
2019-05-13T02:26:38.577Z,96431.50
2019-05-13T02:29:11.258Z,96429.84
2019-05-13T02:31:50.945Z,96431.77
2019-05-13T02:34:18.152Z,96436.83
2019-05-13T02:36:52.733Z,96426.20
2019-05-13T02:39:25.105Z,96432.48
2019-05-13T02:41:57.709Z,96424.69
2019-05-13T02:44:33.243Z,96421.66
2019-05-13T02:47:04.915Z,96429.00
2019-05-13T02:49:37.536Z,96429.61
2019-05-13T02:52:13.016Z,96436.28
2019-05-13T02:54:48.725Z,96430.66
2019-05-13T02:57:23.349Z,96436.94
2019-05-13T02:59:55.670Z,96435.64
2019-05-13T03:02:28.342Z,96433.01
2019-05-13T03:05:03.163Z,96437.88
2019-05-13T03:07:35.268Z,96428.82
2019-05-13T03:10:13.548Z,96433.70
2019-05-13T03:12:45.039Z,96436.00
2019-05-13T03:15:17.842Z,96427.94
2019-05-13T03:18:08.715Z,96446.34
2019-05-13T03:20:43.117Z,96444.88
2019-05-13T03:23:15.963Z,96442.50
2019-05-13T03:25:49.058Z,96447.56
2019-05-13T03:28:22.518Z,96450.86
2019-05-13T03:30:56.682Z,96446.87
2019-05-13T03:33:35.889Z,96448.09
2019-05-13T03:36:07.309Z,96450.94
2019-05-13T03:38:59.383Z,96445.38
2019-05-13T03:41:17.889Z,96444.28
2019-05-13T03:43:53.611Z,96448.86
2019-05-13T03:46:27.054Z,96446.68
2019-05-13T03:49:03.416Z,96456.45
2019-05-13T03:51:36.001Z,96457.56
2019-05-13T03:54:12.647Z,96460.88
2019-05-13T03:56:44.473Z,96452.80
2019-05-13T03:59:17.125Z,96447.19
2019-05-13T04:01:52.451Z,96450.08
2019-05-13T04:04:24.250Z,96453.95
2019-05-13T04:06:56.836Z,96455.54
2019-05-13T04:09:32.528Z,96454.88
2019-05-13T04:12:04.165Z,96454.57
2019-05-13T04:14:36.792Z,96457.51
2019-05-13T04:17:12.362Z,96465.49
2019-05-13T04:19:43.746Z,96464.44
2019-05-13T04:22:16.370Z,96446.64
2019-05-13T04:24:52.914Z,96452.82
2019-05-13T04:27:24.766Z,96460.58
2019-05-13T04:29:57.470Z,96462.02
2019-05-13T04:32:33.330Z,96459.89
2019-05-13T04:35:04.713Z,96463.50
2019-05-13T04:37:37.289Z,96456.02
2019-05-13T04:40:12.842Z,96458.96
2019-05-13T04:42:45.555Z,96452.55
2019-05-13T04:45:18.248Z,96451.06
2019-05-13T04:47:52.820Z,96460.48
2019-05-13T04:50:25.248Z,96454.67
2019-05-13T04:52:57.802Z,96461.60
2019-05-13T04:55:33.313Z,96456.06
2019-05-13T04:58:04.947Z,96459.06
2019-05-13T05:01:24.871Z,96468.34
2019-05-13T05:04:22.396Z,96459.38
2019-05-13T05:07:18.205Z,96439.44
2019-05-13T05:10:30.427Z,96454.48
2019-05-13T05:13:36.237Z,96448.61
2019-05-13T05:17:08.417Z,96449.90
2019-05-13T05:20:23.108Z,96448.25
2019-05-13T05:23:22.074Z,96440.31
2019-05-13T05:26:34.150Z,96441.20
2019-05-13T05:29:48.092Z,96435.61
2019-05-13T05:33:18.524Z,96439.41
2019-05-13T05:36:28.065Z,96444.13
2019-05-13T05:39:24.996Z,96452.75
2019-05-13T05:41:58.927Z,96449.09
2019-05-13T05:44:32.886Z,96451.34
2019-05-13T05:47:06.017Z,96463.13
2019-05-13T05:49:42.304Z,96458.65
2019-05-13T05:52:16.389Z,96469.00
2019-05-13T05:54:53.372Z,96462.97
2019-05-13T05:57:27.837Z,96463.92
2019-05-13T06:00:03.149Z,96450.86
2019-05-13T06:02:37.309Z,96473.93
2019-05-13T06:05:12.491Z,96465.56
2019-05-13T06:07:45.279Z,96470.53
2019-05-13T06:10:18.392Z,96473.23
2019-05-13T06:12:52.277Z,96465.70
2019-05-13T06:15:25.118Z,96474.69
2019-05-13T06:17:57.750Z,96465.32
2019-05-13T06:20:31.700Z,96454.32
2019-05-13T06:23:04.481Z,96463.98
2019-05-13T06:25:37.034Z,96463.75
2019-05-13T06:28:12.235Z,96445.58
2019-05-13T06:30:44.298Z,96453.95
2019-05-13T06:33:17.094Z,96441.14
2019-05-13T06:35:51.960Z,96445.35
2019-05-13T06:38:23.709Z,96445.55
2019-05-13T06:41:02.664Z,96427.53
2019-05-13T06:43:31.479Z,96435.11
2019-05-13T06:46:04.266Z,96432.48
2019-05-13T06:48:36.805Z,96411.22
2019-05-13T06:51:11.582Z,96443.96
2019-05-13T06:53:43.854Z,96436.48
2019-05-13T06:56:16.692Z,96433.67
2019-05-13T06:58:51.820Z,96423.52
2019-05-13T07:01:23.708Z,96424.86
2019-05-13T07:03:56.369Z,96424.39
2019-05-13T07:06:28.989Z,96432.41
2019-05-13T07:09:01.749Z,96406.38
2019-05-13T07:11:34.692Z,96430.64
2019-05-13T07:14:07.799Z,96413.34
2019-05-13T07:16:42.170Z,96413.49
2019-05-13T07:19:15.038Z,96426.20
2019-05-13T07:21:47.810Z,96420.69
2019-05-13T07:24:21.439Z,96416.14
2019-05-13T07:26:54.243Z,96421.11
2019-05-13T07:29:27.126Z,96428.25
2019-05-13T07:32:01.705Z,96404.19
2019-05-13T07:34:34.238Z,96414.00
2019-05-13T07:37:07.050Z,96423.25
2019-05-13T07:39:41.914Z,96414.81
2019-05-13T07:42:14.746Z,96419.56
2019-05-13T07:44:47.462Z,96416.09
2019-05-13T07:47:22.354Z,96421.17
2019-05-13T07:49:54.596Z,96420.74
2019-05-13T07:52:27.421Z,96425.09
2019-05-13T07:55:01.607Z,96408.05
2019-05-13T07:57:34.452Z,96413.20
2019-05-13T08:00:08.499Z,96426.56
2019-05-13T08:02:41.811Z,96419.35
2019-05-13T08:05:15.309Z,96425.09
2019-05-13T08:07:48.133Z,96423.20
2019-05-13T08:10:22.032Z,96420.25
2019-05-13T08:12:54.832Z,96431.00
2019-05-13T08:15:27.909Z,96425.38
2019-05-13T08:18:02.032Z,96413.42
2019-05-13T08:20:34.996Z,96415.44
2019-05-13T08:23:07.744Z,96422.36
2019-05-13T08:25:42.458Z,96401.88
2019-05-13T08:28:15.230Z,96418.33
2019-05-13T08:30:47.917Z,96400.52
2019-05-13T08:33:22.697Z,96440.65
2019-05-13T08:35:58.770Z,96432.73
2019-05-13T08:38:31.871Z,96415.55
2019-05-13T08:41:03.948Z,96439.88
2019-05-13T08:43:36.716Z,96426.55
2019-05-13T08:46:09.632Z,96430.59
2019-05-13T08:48:42.964Z,96419.47
2019-05-13T08:51:15.719Z,96419.37
2019-05-13T08:53:48.374Z,96420.32
2019-05-13T08:56:21.806Z,96418.11
2019-05-13T08:58:54.539Z,96390.76
2019-05-13T09:01:27.311Z,96423.09
2019-05-13T09:04:02.299Z,96411.75
2019-05-13T09:06:34.874Z,96404.16
2019-05-13T09:09:11.559Z,96408.27
2019-05-13T09:11:43.927Z,96413.04
2019-05-13T09:14:16.865Z,96413.94
2019-05-13T09:16:52.357Z,96409.67
2019-05-13T09:19:24.091Z,96422.70
2019-05-13T09:21:56.803Z,96411.52
2019-05-13T09:24:36.642Z,96409.09
2019-05-13T09:27:03.881Z,96384.39
2019-05-13T09:29:36.595Z,96408.48
2019-05-13T09:32:11.908Z,96394.17
2019-05-13T09:34:43.898Z,96408.00
2019-05-13T09:37:16.673Z,96398.09
2019-05-13T09:39:51.625Z,96409.46
2019-05-13T09:42:23.892Z,96416.72
2019-05-13T09:44:56.736Z,96396.41
2019-05-13T09:47:29.384Z,96405.61
2019-05-13T09:50:04.442Z,96402.80
2019-05-13T09:52:39.657Z,96408.74
2019-05-13T09:55:25.314Z,96402.47
2019-05-13T09:57:46.627Z,96401.69
2019-05-13T10:00:21.792Z,96408.44
2019-05-13T10:02:53.891Z,96408.50
2019-05-13T10:05:26.607Z,96400.74
2019-05-13T10:08:02.117Z,96408.15
2019-05-13T10:10:33.983Z,96416.98
2019-05-13T10:13:11.992Z,96424.20
2019-05-13T10:15:42.213Z,96425.55
2019-05-13T10:18:15.070Z,96405.54
2019-05-13T10:20:58.792Z,96411.39
2019-05-13T10:23:32.933Z,96408.53
2019-05-13T10:26:13.636Z,96397.59
2019-05-13T10:28:44.987Z,96400.95
2019-05-13T10:31:17.797Z,96400.18
2019-05-13T10:33:51.385Z,96394.05
2019-05-13T10:36:24.324Z,96402.14
2019-05-13T10:38:57.024Z,96400.96
2019-05-13T10:41:33.006Z,96395.39
2019-05-13T10:44:04.474Z,96413.61
2019-05-13T10:46:37.189Z,96395.71
2019-05-13T10:49:12.232Z,96422.29
2019-05-13T10:51:44.385Z,96395.95
2019-05-13T10:54:17.097Z,96386.19
2019-05-13T10:56:53.090Z,96382.28
2019-05-13T10:59:24.411Z,96389.47
2019-05-13T11:01:57.090Z,96363.48
2019-05-13T11:04:32.048Z,96367.89
2019-05-13T11:07:04.504Z,96378.65
2019-05-13T11:09:37.561Z,96365.48
2019-05-13T11:12:12.187Z,96375.06
2019-05-13T11:14:46.735Z,96387.84
2019-05-13T11:17:25.620Z,96340.29
2019-05-13T11:19:53.685Z,96395.77
2019-05-13T11:22:26.483Z,96395.81
2019-05-13T11:24:59.401Z,96403.69
2019-05-13T11:27:33.536Z,96345.27
2019-05-13T11:30:07.976Z,96364.17
2019-05-13T11:32:42.684Z,96401.55
2019-05-13T11:35:15.713Z,96392.84
2019-05-13T11:37:48.446Z,96376.75
2019-05-13T11:40:22.514Z,96382.63
2019-05-13T11:42:55.365Z,96394.16
2019-05-13T11:45:28.192Z,96397.30
2019-05-13T11:48:02.283Z,96374.83
2019-05-13T11:50:35.150Z,96402.14
2019-05-13T11:53:30.034Z,96388.52
2019-05-13T11:55:42.565Z,96384.70
2019-05-13T11:58:15.327Z,96396.06
2019-05-13T12:00:57.947Z,96380.50
2019-05-13T12:03:32.472Z,96390.35
2019-05-13T12:06:05.242Z,96408.80
2019-05-13T12:08:37.943Z,96405.78
2019-05-13T12:11:14.087Z,96373.46
2019-05-13T12:13:45.186Z,96378.45
2019-05-13T12:16:17.969Z,96373.20
2019-05-13T12:18:52.562Z,96352.89
2019-05-13T12:21:25.128Z,96393.43
2019-05-13T12:23:58.172Z,96377.72
2019-05-13T12:26:33.266Z,96381.52
2019-05-13T12:29:05.634Z,96387.69
2019-05-13T12:31:38.357Z,96404.56
2019-05-13T12:34:13.047Z,96381.32
2019-05-13T12:36:45.537Z,96388.98
2019-05-13T12:39:18.288Z,96384.03
2019-05-13T12:41:53.538Z,96390.33
2019-05-13T12:44:25.394Z,96376.86
2019-05-13T12:46:58.207Z,96371.22
2019-05-13T12:49:33.522Z,96396.70
2019-05-13T12:52:05.335Z,96395.84
2019-05-13T12:54:38.037Z,96413.27
2019-05-13T12:57:13.226Z,96391.39
2019-05-13T12:59:45.236Z,96390.91
2019-05-13T13:02:18.032Z,96392.23
2019-05-13T13:05:09.297Z,96382.67
2019-05-13T13:07:25.331Z,96383.39
2019-05-13T13:09:58.253Z,96393.41
2019-05-13T13:12:35.960Z,96386.38
2019-05-13T13:15:31.737Z,96383.77
2019-05-13T13:17:41.467Z,96382.44
2019-05-13T13:20:15.614Z,96368.14
2019-05-13T13:22:48.528Z,96376.44
2019-05-13T13:25:23.836Z,96373.32
2019-05-13T13:28:15.243Z,96363.17
2019-05-13T13:30:35.044Z,96374.20
2019-05-13T13:33:04.683Z,96395.55
2019-05-13T13:35:37.725Z,96357.92
2019-05-13T13:38:10.565Z,96381.28
2019-05-13T13:40:45.677Z,96381.20
2019-05-13T13:43:18.281Z,96382.30
2019-05-13T13:46:17.143Z,96381.72
2019-05-13T13:48:26.156Z,96351.06
2019-05-13T13:50:58.849Z,96383.01
2019-05-13T13:53:33.249Z,96389.75
2019-05-13T13:56:06.295Z,96400.86
2019-05-13T13:58:43.363Z,96386.02
2019-05-13T14:01:18.429Z,96395.98
2019-05-13T14:03:47.912Z,96391.28
2019-05-13T14:07:22.850Z,96388.08
2019-05-13T14:08:55.064Z,96389.98
2019-05-13T14:11:27.768Z,96378.42
2019-05-13T14:14:02.186Z,96378.92
2019-05-13T14:16:35.380Z,96375.73
2019-05-13T14:19:08.686Z,96359.65
2019-05-13T14:21:41.740Z,96370.68
2019-05-13T14:24:14.490Z,96364.17
2019-05-13T14:26:47.173Z,96382.11
2019-05-13T14:29:21.339Z,96366.55
2019-05-13T14:31:54.358Z,96363.30
2019-05-13T14:34:27.223Z,96352.41
2019-05-13T14:37:01.183Z,96359.13
2019-05-13T14:39:36.104Z,96368.66
2019-05-13T14:42:08.534Z,96378.09
2019-05-13T14:44:41.306Z,96366.91
2019-05-13T14:47:14.254Z,96368.36
2019-05-13T14:49:46.977Z,96381.16
2019-05-13T14:52:22.092Z,96388.89
2019-05-13T14:54:54.190Z,96371.56
2019-05-13T14:57:26.915Z,96363.96
2019-05-13T15:00:02.199Z,96368.45
2019-05-13T15:02:35.965Z,96354.98
2019-05-13T15:05:11.998Z,96358.02
2019-05-13T15:07:44.623Z,96366.43
2019-05-13T15:10:17.946Z,96360.02
2019-05-13T15:12:52.421Z,96371.36
2019-05-13T15:15:25.129Z,96367.07
2019-05-13T15:17:57.895Z,96378.21
2019-05-13T15:20:33.077Z,96370.94
2019-05-13T15:23:05.067Z,96359.56
2019-05-13T15:25:38.238Z,96372.33
2019-05-13T15:28:11.975Z,96370.78
2019-05-13T15:30:45.027Z,96366.37
2019-05-13T15:33:17.767Z,96377.08
2019-05-13T15:35:51.923Z,96373.52
2019-05-13T15:38:24.824Z,96362.02
2019-05-13T15:40:57.522Z,96375.67
2019-05-13T15:43:31.921Z,96367.33
2019-05-13T15:46:04.626Z,96383.30
2019-05-13T15:48:37.582Z,96352.89
2019-05-13T15:51:11.279Z,96371.22
2019-05-13T15:53:44.233Z,96375.28
2019-05-13T15:56:16.980Z,96356.61
2019-05-13T15:58:52.662Z,96375.27
2019-05-13T16:01:24.597Z,96373.33
2019-05-13T16:03:57.267Z,96358.98
2019-05-13T16:06:32.138Z,96376.92
2019-05-13T16:09:06.446Z,96372.20
2019-05-13T16:11:41.462Z,96356.67
2019-05-13T16:14:13.721Z,96373.58
2019-05-13T16:16:46.571Z,96363.52
2019-05-13T16:19:19.866Z,96369.84
2019-05-13T16:21:53.881Z,96354.86
2019-05-13T16:24:26.666Z,96349.30
2019-05-13T16:26:59.347Z,96363.69
2019-05-13T16:29:32.229Z,96368.38
2019-05-13T16:32:05.381Z,96360.00
2019-05-13T16:34:38.292Z,96345.20
2019-05-13T16:37:11.772Z,96354.12
2019-05-13T16:39:44.543Z,96355.99
2019-05-13T16:42:17.396Z,96348.91
2019-05-13T16:44:51.619Z,96356.80
2019-05-13T16:47:24.470Z,96349.64
2019-05-13T16:49:57.270Z,96358.98
2019-05-13T16:52:31.804Z,96370.44
2019-05-13T16:55:05.020Z,96369.54
2019-05-13T16:57:37.786Z,96369.95
2019-05-13T17:00:11.811Z,96362.66
2019-05-13T17:02:44.513Z,96368.16
2019-05-13T17:05:17.628Z,96357.64
2019-05-13T17:07:51.547Z,96372.44
2019-05-13T17:10:24.373Z,96379.80
2019-05-13T17:12:57.119Z,96379.52
2019-05-13T17:15:31.159Z,96365.77
2019-05-13T17:18:11.720Z,96371.53
2019-05-13T17:20:38.432Z,96385.25
2019-05-13T17:23:12.395Z,96372.81
2019-05-13T17:25:45.345Z,96384.92
2019-05-13T17:28:18.660Z,96360.91
2019-05-13T17:30:52.042Z,96363.14
2019-05-13T17:33:25.107Z,96371.08
2019-05-13T17:35:57.747Z,96366.31
2019-05-13T17:38:32.353Z,96380.37
2019-05-13T17:41:05.407Z,96377.95
2019-05-13T17:43:38.227Z,96379.72
2019-05-13T17:46:10.953Z,96384.14
2019-05-13T17:48:43.689Z,96385.39
2019-05-13T17:51:16.630Z,96379.56
2019-05-13T17:53:51.901Z,96384.84
2019-05-13T17:56:23.937Z,96379.20
2019-05-13T17:58:56.638Z,96388.28
2019-05-13T18:01:31.699Z,96379.89
2019-05-13T18:04:04.216Z,96375.27
2019-05-13T18:06:36.952Z,96383.80
2019-05-13T18:09:11.884Z,96372.19
2019-05-13T18:11:44.239Z,96369.48
2019-05-13T18:14:17.010Z,96368.56
2019-05-13T18:16:49.864Z,96372.19
2019-05-13T18:19:25.564Z,96375.39
2019-05-13T18:21:56.967Z,96382.11
2019-05-13T18:24:31.934Z,96385.38
2019-05-13T18:27:04.235Z,96381.56
2019-05-13T18:29:36.991Z,96376.31
2019-05-13T18:32:12.154Z,96372.91
2019-05-13T18:34:44.279Z,96368.66
2019-05-13T18:37:17.064Z,96361.56
2019-05-13T18:39:51.885Z,96375.39
2019-05-13T18:42:24.195Z,96375.31
2019-05-13T18:44:56.878Z,96366.22
2019-05-13T18:47:31.597Z,96363.09
2019-05-13T18:50:04.421Z,96365.57
2019-05-13T18:52:37.246Z,96369.99
2019-05-13T18:55:12.244Z,96369.89
2019-05-13T18:57:44.389Z,96367.95
2019-05-13T19:00:17.313Z,96376.25
2019-05-13T19:02:50.058Z,96363.41
2019-05-13T19:05:22.775Z,96365.67
2019-05-13T19:07:55.525Z,96358.84
2019-05-13T19:10:28.374Z,96362.58
2019-05-13T19:13:01.697Z,96374.30
2019-05-13T19:15:34.478Z,96369.39
2019-05-13T19:18:07.243Z,96366.60
2019-05-13T19:20:41.849Z,96379.33
2019-05-13T19:23:14.352Z,96381.80
2019-05-13T19:25:47.157Z,96393.66
2019-05-13T19:28:22.127Z,96386.29
2019-05-13T19:30:56.688Z,96386.09
2019-05-13T19:33:28.793Z,96384.03
2019-05-13T19:36:01.738Z,96383.60
2019-05-13T19:38:34.431Z,96383.50
2019-05-13T19:41:07.120Z,96382.83
2019-05-13T19:43:41.484Z,96383.45
2019-05-13T19:46:14.119Z,96375.11
2019-05-13T19:48:46.790Z,96377.95
2019-05-13T19:51:21.588Z,96388.42
2019-05-13T19:53:53.679Z,96393.59
2019-05-13T19:56:27.230Z,96381.67
2019-05-13T19:59:01.566Z,96382.86
2019-05-13T20:01:34.556Z,96370.34
2019-05-13T20:04:07.344Z,96377.41
2019-05-13T20:06:41.454Z,96371.61
2019-05-13T20:09:14.352Z,96371.25
2019-05-13T20:11:47.050Z,96368.03
2019-05-13T20:14:22.220Z,96371.61
2019-05-13T20:16:54.265Z,96369.78
2019-05-13T20:19:27.096Z,96363.14
2019-05-13T20:22:02.193Z,96366.41
2019-05-13T20:24:34.042Z,96370.12
2019-05-13T20:27:06.977Z,96365.62
2019-05-13T20:29:41.567Z,96361.67
2019-05-13T20:32:15.017Z,96359.22
2019-05-13T20:34:47.693Z,96365.37
2019-05-13T20:37:21.495Z,96358.05
2019-05-13T20:39:54.310Z,96359.88
2019-05-13T20:42:27.132Z,96346.71
2019-05-13T20:45:02.267Z,96364.28
2019-05-13T20:47:34.169Z,96356.73
2019-05-13T20:50:07.814Z,96365.09
2019-05-13T20:52:42.027Z,96359.75
2019-05-13T20:55:15.016Z,96359.22
2019-05-13T20:57:47.749Z,96359.81
2019-05-13T21:00:21.148Z,96353.44
2019-05-13T21:02:53.778Z,96349.92
2019-05-13T21:05:26.583Z,96350.70
2019-05-13T21:08:01.631Z,96343.34
2019-05-13T21:10:33.766Z,96337.88
2019-05-13T21:13:06.639Z,96339.23
2019-05-13T21:15:38.837Z,96347.53
2019-05-13T21:18:11.591Z,96342.42
2019-05-13T21:20:44.321Z,96346.00
2019-05-13T21:23:16.993Z,96341.44
2019-05-13T21:25:51.097Z,96338.66
2019-05-13T21:28:23.957Z,96334.55
2019-05-13T21:30:56.630Z,96343.58
2019-05-13T21:33:31.314Z,96319.40
2019-05-13T21:36:03.741Z,96320.14
2019-05-13T21:38:36.467Z,96322.56
2019-05-13T21:41:09.131Z,96320.34
2019-05-13T21:43:41.835Z,96328.38
2019-05-13T21:46:14.535Z,96321.68
2019-05-13T21:48:47.235Z,96326.32
2019-05-13T21:51:22.163Z,96324.73
2019-05-13T21:53:54.224Z,96326.80
2019-05-13T21:56:26.849Z,96322.59
2019-05-13T21:59:01.418Z,96320.66
2019-05-13T22:01:33.988Z,96323.11
2019-05-13T22:04:06.802Z,96323.23
2019-05-13T22:06:39.538Z,96317.45
2019-05-13T22:09:12.470Z,96318.82
2019-05-13T22:11:45.059Z,96314.93
2019-05-13T22:14:17.669Z,96315.55
2019-05-13T22:16:51.791Z,96313.20
2019-05-13T22:19:24.476Z,96304.48
2019-05-13T22:21:57.289Z,96294.73
2019-05-13T22:24:31.219Z,96291.83
2019-05-13T22:27:04.053Z,96297.63
2019-05-13T22:29:36.265Z,96303.02
2019-05-13T22:32:11.157Z,96289.02
2019-05-13T22:34:43.212Z,96292.48
2019-05-13T22:37:15.048Z,96273.24
2019-05-13T22:39:47.284Z,96274.14
2019-05-13T22:42:21.473Z,96277.55
2019-05-13T22:44:53.678Z,96275.42
2019-05-13T22:47:26.372Z,96259.82
2019-05-13T22:49:59.128Z,96251.47
2019-05-13T22:52:31.932Z,96254.61
2019-05-13T22:55:04.807Z,96252.48
2019-05-13T22:57:37.416Z,96260.23
2019-05-13T23:00:11.934Z,96261.13
2019-05-13T23:02:44.870Z,96260.40
2019-05-13T23:05:17.513Z,96252.81
2019-05-13T23:07:51.424Z,96255.77
2019-05-13T23:10:24.223Z,96250.41
2019-05-13T23:12:56.979Z,96249.85
2019-05-13T23:15:29.677Z,96243.13
2019-05-13T23:18:02.362Z,96234.59
2019-05-13T23:20:34.971Z,96241.78
2019-05-13T23:23:07.649Z,96243.27
2019-05-13T23:25:42.993Z,96240.61
2019-05-13T23:28:14.639Z,96235.70
2019-05-13T23:30:47.298Z,96233.75
2019-05-13T23:33:21.921Z,96228.66
2019-05-13T23:35:54.339Z,96231.45
2019-05-13T23:38:27.031Z,96230.17
2019-05-13T23:41:01.880Z,96234.23
2019-05-13T23:43:34.001Z,96230.69
2019-05-13T23:46:06.732Z,96222.87
2019-05-13T23:48:41.288Z,96222.70
2019-05-13T23:51:13.990Z,96223.59
2019-05-13T23:53:46.675Z,96221.53
2019-05-13T23:56:21.633Z,96219.48
2019-05-13T23:58:53.676Z,96213.42
